sensor_id;sensor_type;location;lat;lon;timestamp;temperature;humidity
28532;DHT22;15738;44.860;10.066;2022-08-03T00:00:49;24.70;99.90
28532;DHT22;15738;44.860;10.066;2022-08-03T00:03:34;24.80;99.90
28532;DHT22;15738;44.860;10.066;2022-08-03T00:11:52;24.50;99.90
28532;DHT22;15738;44.860;10.066;2022-08-03T00:20:11;24.40;99.90
28532;DHT22;15738;44.860;10.066;2022-08-03T00:22:57;24.40;99.90
28532;DHT22;15738;44.860;10.066;2022-08-03T00:31:15;24.40;99.90
28532;DHT22;15738;44.860;10.066;2022-08-03T00:45:21;24.40;99.90
28532;DHT22;15738;44.860;10.066;2022-08-03T00:48:08;24.40;99.90
28532;DHT22;15738;44.860;10.066;2022-08-03T00:56:48;24.30;99.90
28532;DHT22;15738;44.860;10.066;2022-08-03T00:59:45;24.10;99.90
28532;DHT22;15738;44.860;10.066;2022-08-03T01:05:18;24.20;99.90
28532;DHT22;15738;44.860;10.066;2022-08-03T01:08:43;24.20;99.90
28532;DHT22;15738;44.860;10.066;2022-08-03T01:11:52;24.00;99.90
28532;DHT22;15738;44.860;10.066;2022-08-03T01:14:54;24.00;99.90
28532;DHT22;15738;44.860;10.066;2022-08-03T01:17:50;24.00;99.90
28532;DHT22;15738;44.860;10.066;2022-08-03T01:20:44;24.00;99.90
28532;DHT22;15738;44.860;10.066;2022-08-03T01:23:45;24.10;99.90
28532;DHT22;15738;44.860;10.066;2022-08-03T01:26:53;24.00;99.90
28532;DHT22;15738;44.860;10.066;2022-08-03T01:29:59;24.00;99.90
28532;DHT22;15738;44.860;10.066;2022-08-03T01:32:57;24.00;99.90
28532;DHT22;15738;44.860;10.066;2022-08-03T01:35:52;23.90;99.90
28532;DHT22;15738;44.860;10.066;2022-08-03T01:38:42;23.90;99.90
28532;DHT22;15738;44.860;10.066;2022-08-03T01:41:41;23.90;99.90
28532;DHT22;15738;44.860;10.066;2022-08-03T01:44:30;23.80;99.90
28532;DHT22;15738;44.860;10.066;2022-08-03T01:47:20;23.90;99.90
28532;DHT22;15738;44.860;10.066;2022-08-03T01:50:07;23.90;99.90
28532;DHT22;15738;44.860;10.066;2022-08-03T01:52:56;23.80;99.90
28532;DHT22;15738;44.860;10.066;2022-08-03T01:55:45;23.80;99.90
28532;DHT22;15738;44.860;10.066;2022-08-03T01:58:34;23.80;99.90
28532;DHT22;15738;44.860;10.066;2022-08-03T02:01:21;23.80;99.90
28532;DHT22;15738;44.860;10.066;2022-08-03T02:04:08;23.70;99.90
28532;DHT22;15738;44.860;10.066;2022-08-03T02:06:56;23.60;99.90
28532;DHT22;15738;44.860;10.066;2022-08-03T02:09:50;23.60;99.90
28532;DHT22;15738;44.860;10.066;2022-08-03T02:12:37;23.60;99.90
28532;DHT22;15738;44.860;10.066;2022-08-03T02:15:25;23.60;99.90
28532;DHT22;15738;44.860;10.066;2022-08-03T02:18:12;23.70;99.90
28532;DHT22;15738;44.860;10.066;2022-08-03T02:21:00;23.60;99.90
28532;DHT22;15738;44.860;10.066;2022-08-03T02:23:55;23.60;99.90
28532;DHT22;15738;44.860;10.066;2022-08-03T02:26:42;23.60;99.90
28532;DHT22;15738;44.860;10.066;2022-08-03T02:29:31;23.60;99.90
28532;DHT22;15738;44.860;10.066;2022-08-03T02:32:31;23.50;99.90
28532;DHT22;15738;44.860;10.066;2022-08-03T02:35:19;23.50;99.90
28532;DHT22;15738;44.860;10.066;2022-08-03T02:38:09;23.50;99.90
28532;DHT22;15738;44.860;10.066;2022-08-03T02:40:57;23.40;99.90
28532;DHT22;15738;44.860;10.066;2022-08-03T02:43:48;23.40;99.90
28532;DHT22;15738;44.860;10.066;2022-08-03T02:47:04;23.40;99.90
28532;DHT22;15738;44.860;10.066;2022-08-03T02:49:51;23.30;99.90
28532;DHT22;15738;44.860;10.066;2022-08-03T02:52:39;23.30;99.90
28532;DHT22;15738;44.860;10.066;2022-08-03T02:55:27;23.20;99.90
28532;DHT22;15738;44.860;10.066;2022-08-03T02:58:17;23.20;99.90
28532;DHT22;15738;44.860;10.066;2022-08-03T03:01:04;23.30;99.90
28532;DHT22;15738;44.860;10.066;2022-08-03T03:03:51;23.30;99.90
28532;DHT22;15738;44.860;10.066;2022-08-03T03:06:39;23.00;99.90
28532;DHT22;15738;44.860;10.066;2022-08-03T03:09:28;23.30;99.90
28532;DHT22;15738;44.860;10.066;2022-08-03T03:12:26;22.90;99.90
28532;DHT22;15738;44.860;10.066;2022-08-03T03:15:12;23.00;99.90
28532;DHT22;15738;44.860;10.066;2022-08-03T03:17:58;23.10;99.90
28532;DHT22;15738;44.860;10.066;2022-08-03T03:20:46;23.30;99.90
28532;DHT22;15738;44.860;10.066;2022-08-03T03:23:36;23.40;99.90
28532;DHT22;15738;44.860;10.066;2022-08-03T03:26:22;23.20;99.90
28532;DHT22;15738;44.860;10.066;2022-08-03T03:29:08;23.00;99.90
28532;DHT22;15738;44.860;10.066;2022-08-03T03:31:54;23.10;99.90
28532;DHT22;15738;44.860;10.066;2022-08-03T03:40:14;23.10;99.90
28532;DHT22;15738;44.860;10.066;2022-08-03T03:43:00;23.10;99.90
28532;DHT22;15738;44.860;10.066;2022-08-03T03:45:46;23.20;99.90
28532;DHT22;15738;44.860;10.066;2022-08-03T03:48:33;22.20;99.90
28532;DHT22;15738;44.860;10.066;2022-08-03T03:51:18;22.90;99.90
28532;DHT22;15738;44.860;10.066;2022-08-03T03:54:04;22.80;99.90
28532;DHT22;15738;44.860;10.066;2022-08-03T03:56:53;22.80;99.90
28532;DHT22;15738;44.860;10.066;2022-08-03T03:59:42;22.80;99.90
28532;DHT22;15738;44.860;10.066;2022-08-03T04:05:14;22.80;99.90
28532;DHT22;15738;44.860;10.066;2022-08-03T04:08:19;22.50;99.90
28532;DHT22;15738;44.860;10.066;2022-08-03T04:11:30;22.90;99.90
28532;DHT22;15738;44.860;10.066;2022-08-03T04:14:23;23.60;99.90
28532;DHT22;15738;44.860;10.066;2022-08-03T04:17:11;22.60;99.90
28532;DHT22;15738;44.860;10.066;2022-08-03T04:19:59;24.00;99.90
28532;DHT22;15738;44.860;10.066;2022-08-03T04:22:48;22.40;99.90
28532;DHT22;15738;44.860;10.066;2022-08-03T04:25:36;22.60;99.90
28532;DHT22;15738;44.860;10.066;2022-08-03T04:28:24;22.60;99.90
28532;DHT22;15738;44.860;10.066;2022-08-03T04:31:17;22.40;99.90
28532;DHT22;15738;44.860;10.066;2022-08-03T04:34:06;22.20;99.90
28532;DHT22;15738;44.860;10.066;2022-08-03T04:36:56;22.50;99.90
28532;DHT22;15738;44.860;10.066;2022-08-03T04:39:43;22.70;99.90
28532;DHT22;15738;44.860;10.066;2022-08-03T04:42:33;22.80;99.90
28532;DHT22;15738;44.860;10.066;2022-08-03T04:50:53;23.50;99.90
28532;DHT22;15738;44.860;10.066;2022-08-03T04:53:39;23.10;99.90
28532;DHT22;15738;44.860;10.066;2022-08-03T04:59:11;23.20;99.90
28532;DHT22;15738;44.860;10.066;2022-08-03T05:04:43;23.40;99.90
28532;DHT22;15738;44.860;10.066;2022-08-03T05:07:30;23.50;99.90
28532;DHT22;15738;44.860;10.066;2022-08-03T05:10:20;23.90;99.90
28532;DHT22;15738;44.860;10.066;2022-08-03T05:13:06;23.90;99.90
28532;DHT22;15738;44.860;10.066;2022-08-03T05:18:43;24.10;99.90
28532;DHT22;15738;44.860;10.066;2022-08-03T05:24:35;25.30;99.90
28532;DHT22;15738;44.860;10.066;2022-08-03T05:27:21;26.20;99.90
28532;DHT22;15738;44.860;10.066;2022-08-03T05:30:07;26.80;99.90
28532;DHT22;15738;44.860;10.066;2022-08-03T05:33:13;27.00;99.90
28532;DHT22;15738;44.860;10.066;2022-08-03T05:35:59;27.20;99.90
28532;DHT22;15738;44.860;10.066;2022-08-03T05:38:48;27.40;99.90
28532;DHT22;15738;44.860;10.066;2022-08-03T05:44:22;28.20;99.90
28532;DHT22;15738;44.860;10.066;2022-08-03T05:47:09;28.10;99.90
28532;DHT22;15738;44.860;10.066;2022-08-03T05:49:55;27.50;99.90
28532;DHT22;15738;44.860;10.066;2022-08-03T05:52:41;27.80;99.90
28532;DHT22;15738;44.860;10.066;2022-08-03T06:03:47;27.90;99.90
28532;DHT22;15738;44.860;10.066;2022-08-03T06:12:06;27.80;99.90
28532;DHT22;15738;44.860;10.066;2022-08-03T06:14:58;27.60;99.90
28532;DHT22;15738;44.860;10.066;2022-08-03T06:17:48;27.90;99.90
28532;DHT22;15738;44.860;10.066;2022-08-03T06:20:34;27.60;99.90
28532;DHT22;15738;44.860;10.066;2022-08-03T06:23:20;28.00;99.90
28532;DHT22;15738;44.860;10.066;2022-08-03T06:26:05;27.90;99.90
28532;DHT22;15738;44.860;10.066;2022-08-03T06:31:38;28.50;99.90
28532;DHT22;15738;44.860;10.066;2022-08-03T06:34:24;28.40;99.90
28532;DHT22;15738;44.860;10.066;2022-08-03T06:40:05;29.60;99.90
28532;DHT22;15738;44.860;10.066;2022-08-03T06:48:23;28.40;99.90
28532;DHT22;15738;44.860;10.066;2022-08-03T06:53:56;30.40;99.90
28532;DHT22;15738;44.860;10.066;2022-08-03T07:05:20;30.40;99.90
28532;DHT22;15738;44.860;10.066;2022-08-03T07:08:06;29.50;99.90
28532;DHT22;15738;44.860;10.066;2022-08-03T07:10:52;30.80;99.90
28532;DHT22;15738;44.860;10.066;2022-08-03T07:13:37;30.20;99.90
28532;DHT22;15738;44.860;10.066;2022-08-03T07:19:11;30.00;99.90
28532;DHT22;15738;44.860;10.066;2022-08-03T07:21:57;29.80;99.90
28532;DHT22;15738;44.860;10.066;2022-08-03T07:38:38;29.60;99.90
28532;DHT22;15738;44.860;10.066;2022-08-03T07:46:56;30.50;99.90
28532;DHT22;15738;44.860;10.066;2022-08-03T07:55:32;29.70;99.90
28532;DHT22;15738;44.860;10.066;2022-08-03T07:58:19;30.90;99.90
28532;DHT22;15738;44.860;10.066;2022-08-03T08:01:08;30.60;99.90
28532;DHT22;15738;44.860;10.066;2022-08-03T08:03:59;30.20;99.90
28532;DHT22;15738;44.860;10.066;2022-08-03T08:06:45;31.00;99.90
28532;DHT22;15738;44.860;10.066;2022-08-03T08:09:30;30.10;99.90
28532;DHT22;15738;44.860;10.066;2022-08-03T08:15:03;29.50;99.90
28532;DHT22;15738;44.860;10.066;2022-08-03T08:17:51;30.40;99.90
28532;DHT22;15738;44.860;10.066;2022-08-03T08:29:14;30.50;99.90
28532;DHT22;15738;44.860;10.066;2022-08-03T08:34:46;31.60;99.90
28532;DHT22;15738;44.860;10.066;2022-08-03T08:37:32;32.00;99.90
28532;DHT22;15738;44.860;10.066;2022-08-03T08:40:20;31.70;99.90
28532;DHT22;15738;44.860;10.066;2022-08-03T08:43:06;32.20;99.90
28532;DHT22;15738;44.860;10.066;2022-08-03T08:45:53;31.80;99.90
28532;DHT22;15738;44.860;10.066;2022-08-03T08:48:41;31.70;99.90
28532;DHT22;15738;44.860;10.066;2022-08-03T08:51:33;31.60;99.90
28532;DHT22;15738;44.860;10.066;2022-08-03T08:54:41;32.20;99.90
28532;DHT22;15738;44.860;10.066;2022-08-03T08:57:32;32.00;99.90
28532;DHT22;15738;44.860;10.066;2022-08-03T09:00:28;32.80;99.90
28532;DHT22;15738;44.860;10.066;2022-08-03T09:03:15;31.90;99.90
28532;DHT22;15738;44.860;10.066;2022-08-03T09:06:14;32.90;99.90
28532;DHT22;15738;44.860;10.066;2022-08-03T09:11:47;33.20;99.90
28532;DHT22;15738;44.860;10.066;2022-08-03T09:14:54;33.70;99.90
28532;DHT22;15738;44.860;10.066;2022-08-03T09:18:01;32.50;99.90
28532;DHT22;15738;44.860;10.066;2022-08-03T09:20:47;31.70;99.90
28532;DHT22;15738;44.860;10.066;2022-08-03T09:23:47;31.70;99.90
28532;DHT22;15738;44.860;10.066;2022-08-03T09:26:49;32.20;99.80
28532;DHT22;15738;44.860;10.066;2022-08-03T09:35:11;31.90;99.30
28532;DHT22;15738;44.860;10.066;2022-08-03T09:38:18;32.10;99.10
28532;DHT22;15738;44.860;10.066;2022-08-03T09:41:16;32.10;99.90
28532;DHT22;15738;44.860;10.066;2022-08-03T09:44:02;32.00;99.90
28532;DHT22;15738;44.860;10.066;2022-08-03T09:46:52;32.40;99.90
28532;DHT22;15738;44.860;10.066;2022-08-03T09:49:39;31.90;99.90
28532;DHT22;15738;44.860;10.066;2022-08-03T09:52:39;32.30;99.10
28532;DHT22;15738;44.860;10.066;2022-08-03T09:58:46;32.10;99.40
28532;DHT22;15738;44.860;10.066;2022-08-03T10:01:33;32.90;99.90
28532;DHT22;15738;44.860;10.066;2022-08-03T10:09:58;31.90;98.70
28532;DHT22;15738;44.860;10.066;2022-08-03T10:13:04;31.80;99.90
28532;DHT22;15738;44.860;10.066;2022-08-03T10:15:49;32.00;99.90
28532;DHT22;15738;44.860;10.066;2022-08-03T10:18:55;31.30;99.90
28532;DHT22;15738;44.860;10.066;2022-08-03T10:21:48;31.50;99.90
28532;DHT22;15738;44.860;10.066;2022-08-03T10:24:34;32.80;99.90
28532;DHT22;15738;44.860;10.066;2022-08-03T10:27:23;32.40;98.70
28532;DHT22;15738;44.860;10.066;2022-08-03T10:30:10;32.50;98.80
28532;DHT22;15738;44.860;10.066;2022-08-03T10:33:12;32.60;99.90
28532;DHT22;15738;44.860;10.066;2022-08-03T10:36:22;32.40;98.70
28532;DHT22;15738;44.860;10.066;2022-08-03T10:39:09;31.70;99.90
28532;DHT22;15738;44.860;10.066;2022-08-03T10:42:01;32.40;99.90
28532;DHT22;15738;44.860;10.066;2022-08-03T10:44:55;32.00;98.10
28532;DHT22;15738;44.860;10.066;2022-08-03T10:47:49;31.90;98.40
28532;DHT22;15738;44.860;10.066;2022-08-03T10:50:36;31.60;99.90
28532;DHT22;15738;44.860;10.066;2022-08-03T10:53:42;32.20;99.90
28532;DHT22;15738;44.860;10.066;2022-08-03T10:59:59;32.10;98.50
28532;DHT22;15738;44.860;10.066;2022-08-03T11:03:09;32.10;99.90
28532;DHT22;15738;44.860;10.066;2022-08-03T11:14:45;32.20;97.70
28532;DHT22;15738;44.860;10.066;2022-08-03T11:17:34;31.60;99.90
28532;DHT22;15738;44.860;10.066;2022-08-03T11:20:55;32.30;99.90
28532;DHT22;15738;44.860;10.066;2022-08-03T11:23:46;30.80;99.90
28532;DHT22;15738;44.860;10.066;2022-08-03T11:30:23;32.20;98.40
28532;DHT22;15738;44.860;10.066;2022-08-03T11:33:11;32.20;98.70
28532;DHT22;15738;44.860;10.066;2022-08-03T11:39:16;31.10;99.90
28532;DHT22;15738;44.860;10.066;2022-08-03T11:45:08;32.20;97.80
28532;DHT22;15738;44.860;10.066;2022-08-03T11:53:29;31.80;99.00
28532;DHT22;15738;44.860;10.066;2022-08-03T11:56:16;31.10;99.90
28532;DHT22;15738;44.860;10.066;2022-08-03T11:59:01;31.40;99.90
28532;DHT22;15738;44.860;10.066;2022-08-03T12:02:10;32.40;97.50
28532;DHT22;15738;44.860;10.066;2022-08-03T12:04:57;32.20;99.90
28532;DHT22;15738;44.860;10.066;2022-08-03T12:07:45;32.80;99.90
28532;DHT22;15738;44.860;10.066;2022-08-03T12:10:50;32.60;99.90
28532;DHT22;15738;44.860;10.066;2022-08-03T12:16:46;32.60;99.90
28532;DHT22;15738;44.860;10.066;2022-08-03T12:19:42;32.30;99.90
28532;DHT22;15738;44.860;10.066;2022-08-03T12:22:38;32.30;99.80
28532;DHT22;15738;44.860;10.066;2022-08-03T12:25:25;32.20;99.90
28532;DHT22;15738;44.860;10.066;2022-08-03T12:34:09;32.30;99.90
28532;DHT22;15738;44.860;10.066;2022-08-03T12:39:42;32.90;99.90
28532;DHT22;15738;44.860;10.066;2022-08-03T12:42:50;32.70;99.90
28532;DHT22;15738;44.860;10.066;2022-08-03T12:51:12;33.00;99.90
28532;DHT22;15738;44.860;10.066;2022-08-03T12:53:58;32.80;99.90
28532;DHT22;15738;44.860;10.066;2022-08-03T12:57:06;32.80;95.30
28532;DHT22;15738;44.860;10.066;2022-08-03T12:59:52;33.50;99.90
28532;DHT22;15738;44.860;10.066;2022-08-03T13:02:40;32.40;99.90
28532;DHT22;15738;44.860;10.066;2022-08-03T13:05:31;33.10;95.80
28532;DHT22;15738;44.860;10.066;2022-08-03T13:08:23;32.80;99.90
28532;DHT22;15738;44.860;10.066;2022-08-03T13:16:51;32.10;99.90
28532;DHT22;15738;44.860;10.066;2022-08-03T13:19:38;32.50;99.90
28532;DHT22;15738;44.860;10.066;2022-08-03T13:22:25;33.30;99.90
28532;DHT22;15738;44.860;10.066;2022-08-03T13:36:25;33.80;99.90
28532;DHT22;15738;44.860;10.066;2022-08-03T13:39:14;33.10;99.90
28532;DHT22;15738;44.860;10.066;2022-08-03T13:42:04;33.10;99.90
28532;DHT22;15738;44.860;10.066;2022-08-03T13:44:50;33.40;93.80
28532;DHT22;15738;44.860;10.066;2022-08-03T13:47:36;34.00;99.90
28532;DHT22;15738;44.860;10.066;2022-08-03T13:53:09;33.10;99.90
28532;DHT22;15738;44.860;10.066;2022-08-03T13:55:54;33.50;99.90
28532;DHT22;15738;44.860;10.066;2022-08-03T13:58:40;34.10;99.90
28532;DHT22;15738;44.860;10.066;2022-08-03T14:01:26;33.90;99.90
28532;DHT22;15738;44.860;10.066;2022-08-03T14:04:32;33.60;99.10
28532;DHT22;15738;44.860;10.066;2022-08-03T14:12:51;33.40;99.90
28532;DHT22;15738;44.860;10.066;2022-08-03T14:15:37;33.00;99.90
28532;DHT22;15738;44.860;10.066;2022-08-03T14:18:23;33.50;99.90
28532;DHT22;15738;44.860;10.066;2022-08-03T14:21:13;34.00;99.90
28532;DHT22;15738;44.860;10.066;2022-08-03T14:32:17;34.10;99.90
28532;DHT22;15738;44.860;10.066;2022-08-03T14:37:50;33.20;96.30
28532;DHT22;15738;44.860;10.066;2022-08-03T14:40:36;33.50;93.50
28532;DHT22;15738;44.860;10.066;2022-08-03T14:43:23;34.20;99.90
28532;DHT22;15738;44.860;10.066;2022-08-03T14:46:09;33.20;99.90
28532;DHT22;15738;44.860;10.066;2022-08-03T14:48:54;33.50;99.90
28532;DHT22;15738;44.860;10.066;2022-08-03T14:54:46;33.10;99.90
28532;DHT22;15738;44.860;10.066;2022-08-03T14:57:31;33.30;99.90
28532;DHT22;15738;44.860;10.066;2022-08-03T15:03:03;33.30;99.90
28532;DHT22;15738;44.860;10.066;2022-08-03T15:05:50;32.60;99.90
28532;DHT22;15738;44.860;10.066;2022-08-03T15:14:09;33.50;95.60
28532;DHT22;15738;44.860;10.066;2022-08-03T15:16:58;33.40;92.70
28532;DHT22;15738;44.860;10.066;2022-08-03T15:25:34;33.00;98.50
28532;DHT22;15738;44.860;10.066;2022-08-03T15:31:26;33.00;99.90
28532;DHT22;15738;44.860;10.066;2022-08-03T15:34:11;33.10;99.90
28532;DHT22;15738;44.860;10.066;2022-08-03T15:36:57;33.60;99.90
28532;DHT22;15738;44.860;10.066;2022-08-03T15:51:11;33.40;99.90
28532;DHT22;15738;44.860;10.066;2022-08-03T15:53:57;33.00;99.90
28532;DHT22;15738;44.860;10.066;2022-08-03T15:56:42;32.10;99.90
28532;DHT22;15738;44.860;10.066;2022-08-03T15:59:29;33.10;99.90
28532;DHT22;15738;44.860;10.066;2022-08-03T16:02:15;33.20;98.40
28532;DHT22;15738;44.860;10.066;2022-08-03T16:05:01;33.90;99.90
28532;DHT22;15738;44.860;10.066;2022-08-03T16:07:47;32.20;99.90
28532;DHT22;15738;44.860;10.066;2022-08-03T16:10:49;32.70;99.90
28532;DHT22;15738;44.860;10.066;2022-08-03T16:13:36;33.30;99.90
28532;DHT22;15738;44.860;10.066;2022-08-03T16:19:28;33.70;99.90
28532;DHT22;15738;44.860;10.066;2022-08-03T16:22:14;33.70;99.90
28532;DHT22;15738;44.860;10.066;2022-08-03T16:25:04;32.60;98.70
28532;DHT22;15738;44.860;10.066;2022-08-03T16:28:01;33.10;93.50
28532;DHT22;15738;44.860;10.066;2022-08-03T16:30:57;32.40;99.90
28532;DHT22;15738;44.860;10.066;2022-08-03T16:36:28;33.40;99.90
28532;DHT22;15738;44.860;10.066;2022-08-03T16:42:05;32.50;99.90
28532;DHT22;15738;44.860;10.066;2022-08-03T16:44:51;32.80;99.00
28532;DHT22;15738;44.860;10.066;2022-08-03T16:47:37;33.30;99.90
28532;DHT22;15738;44.860;10.066;2022-08-03T16:53:11;32.50;99.90
28532;DHT22;15738;44.860;10.066;2022-08-03T16:56:03;33.50;99.90
28532;DHT22;15738;44.860;10.066;2022-08-03T17:04:33;32.90;99.90
28532;DHT22;15738;44.860;10.066;2022-08-03T17:07:19;32.40;99.90
28532;DHT22;15738;44.860;10.066;2022-08-03T17:10:07;33.10;95.90
28532;DHT22;15738;44.860;10.066;2022-08-03T17:15:40;32.70;95.20
28532;DHT22;15738;44.860;10.066;2022-08-03T17:18:55;32.60;95.00
28532;DHT22;15738;44.860;10.066;2022-08-03T17:21:45;32.60;94.80
28532;DHT22;15738;44.860;10.066;2022-08-03T17:24:38;32.70;94.80
28532;DHT22;15738;44.860;10.066;2022-08-03T17:27:27;32.60;94.90
28532;DHT22;15738;44.860;10.066;2022-08-03T17:30:35;32.50;94.80
28532;DHT22;15738;44.860;10.066;2022-08-03T17:36:38;32.80;99.90
28532;DHT22;15738;44.860;10.066;2022-08-03T17:39:44;32.40;95.10
28532;DHT22;15738;44.860;10.066;2022-08-03T17:42:48;32.50;99.90
28532;DHT22;15738;44.860;10.066;2022-08-03T17:48:37;32.80;99.90
28532;DHT22;15738;44.860;10.066;2022-08-03T18:05:05;32.10;96.10
28532;DHT22;15738;44.860;10.066;2022-08-03T18:08:02;32.00;96.30
28532;DHT22;15738;44.860;10.066;2022-08-03T18:14:40;31.90;96.90
28532;DHT22;15738;44.860;10.066;2022-08-03T18:17:27;32.40;99.90
28532;DHT22;15738;44.860;10.066;2022-08-03T18:20:33;31.30;99.90
28532;DHT22;15738;44.860;10.066;2022-08-03T18:23:27;31.50;99.90
28532;DHT22;15738;44.860;10.066;2022-08-03T18:26:22;31.80;99.90
28532;DHT22;15738;44.860;10.066;2022-08-03T18:29:11;31.40;99.90
28532;DHT22;15738;44.860;10.066;2022-08-03T18:31:59;32.10;99.90
28532;DHT22;15738;44.860;10.066;2022-08-03T18:34:59;31.00;99.90
28532;DHT22;15738;44.860;10.066;2022-08-03T18:40:36;31.40;99.90
28532;DHT22;15738;44.860;10.066;2022-08-03T18:53:05;30.50;99.90
28532;DHT22;15738;44.860;10.066;2022-08-03T18:59:14;30.80;99.90
28532;DHT22;15738;44.860;10.066;2022-08-03T19:02:35;30.70;99.90
28532;DHT22;15738;44.860;10.066;2022-08-03T19:05:23;30.60;99.50
28532;DHT22;15738;44.860;10.066;2022-08-03T19:08:44;31.10;99.90
28532;DHT22;15738;44.860;10.066;2022-08-03T19:11:39;31.10;99.90
28532;DHT22;15738;44.860;10.066;2022-08-03T19:14:51;30.20;99.90
28532;DHT22;15738;44.860;10.066;2022-08-03T19:17:44;30.50;99.70
28532;DHT22;15738;44.860;10.066;2022-08-03T19:20:38;30.40;99.90
28532;DHT22;15738;44.860;10.066;2022-08-03T19:23:24;30.00;99.90
28532;DHT22;15738;44.860;10.066;2022-08-03T19:26:18;30.40;99.90
28532;DHT22;15738;44.860;10.066;2022-08-03T19:29:16;30.20;99.90
28532;DHT22;15738;44.860;10.066;2022-08-03T19:32:07;30.00;99.90
28532;DHT22;15738;44.860;10.066;2022-08-03T19:34:55;29.60;99.90
28532;DHT22;15738;44.860;10.066;2022-08-03T19:37:44;29.80;99.90
28532;DHT22;15738;44.860;10.066;2022-08-03T19:40:32;29.70;99.90
28532;DHT22;15738;44.860;10.066;2022-08-03T19:46:19;29.90;99.90
28532;DHT22;15738;44.860;10.066;2022-08-03T19:49:10;29.50;99.90
28532;DHT22;15738;44.860;10.066;2022-08-03T19:52:00;29.30;99.90
28532;DHT22;15738;44.860;10.066;2022-08-03T19:54:50;29.30;99.90
28532;DHT22;15738;44.860;10.066;2022-08-03T19:57:41;29.20;99.90
28532;DHT22;15738;44.860;10.066;2022-08-03T20:03:26;29.80;99.90
28532;DHT22;15738;44.860;10.066;2022-08-03T20:06:28;28.10;99.90
28532;DHT22;15738;44.860;10.066;2022-08-03T20:09:17;28.60;99.90
28532;DHT22;15738;44.860;10.066;2022-08-03T20:12:04;28.70;99.90
28532;DHT22;15738;44.860;10.066;2022-08-03T20:14:50;29.10;99.90
28532;DHT22;15738;44.860;10.066;2022-08-03T20:17:37;28.60;99.90
28532;DHT22;15738;44.860;10.066;2022-08-03T20:20:45;28.60;99.90
28532;DHT22;15738;44.860;10.066;2022-08-03T20:23:37;28.50;99.90
28532;DHT22;15738;44.860;10.066;2022-08-03T20:26:47;27.50;99.90
28532;DHT22;15738;44.860;10.066;2022-08-03T20:29:43;28.70;99.90
28532;DHT22;15738;44.860;10.066;2022-08-03T20:32:51;28.60;99.90
28532;DHT22;15738;44.860;10.066;2022-08-03T20:35:37;28.20;99.90
28532;DHT22;15738;44.860;10.066;2022-08-03T20:38:30;28.00;99.90
28532;DHT22;15738;44.860;10.066;2022-08-03T20:44:03;28.10;99.90
28532;DHT22;15738;44.860;10.066;2022-08-03T20:46:48;28.00;99.90
28532;DHT22;15738;44.860;10.066;2022-08-03T20:49:45;27.80;99.90
28532;DHT22;15738;44.860;10.066;2022-08-03T20:52:31;27.90;99.90
28532;DHT22;15738;44.860;10.066;2022-08-03T20:55:18;27.80;99.90
28532;DHT22;15738;44.860;10.066;2022-08-03T20:58:05;27.90;99.90
28532;DHT22;15738;44.860;10.066;2022-08-03T21:00:52;27.70;99.90
28532;DHT22;15738;44.860;10.066;2022-08-03T21:03:38;27.80;99.90
28532;DHT22;15738;44.860;10.066;2022-08-03T21:06:30;27.20;99.90
28532;DHT22;15738;44.860;10.066;2022-08-03T21:09:19;27.60;99.90
28532;DHT22;15738;44.860;10.066;2022-08-03T21:12:11;28.00;99.90
28532;DHT22;15738;44.860;10.066;2022-08-03T21:15:25;27.70;99.90
28532;DHT22;15738;44.860;10.066;2022-08-03T21:18:36;27.60;99.90
28532;DHT22;15738;44.860;10.066;2022-08-03T21:24:12;27.50;99.90
28532;DHT22;15738;44.860;10.066;2022-08-03T21:26:57;27.60;99.90
28532;DHT22;15738;44.860;10.066;2022-08-03T21:29:45;27.40;99.90
28532;DHT22;15738;44.860;10.066;2022-08-03T21:32:38;27.20;99.90
28532;DHT22;15738;44.860;10.066;2022-08-03T21:38:14;27.00;99.90
28532;DHT22;15738;44.860;10.066;2022-08-03T21:41:14;26.60;99.90
28532;DHT22;15738;44.860;10.066;2022-08-03T21:44:00;27.30;99.90
28532;DHT22;15738;44.860;10.066;2022-08-03T21:46:52;27.20;99.90
28532;DHT22;15738;44.860;10.066;2022-08-03T21:49:40;27.30;99.90
28532;DHT22;15738;44.860;10.066;2022-08-03T21:52:48;27.20;99.90
28532;DHT22;15738;44.860;10.066;2022-08-03T21:55:38;27.20;99.90
28532;DHT22;15738;44.860;10.066;2022-08-03T21:58:31;27.10;99.90
28532;DHT22;15738;44.860;10.066;2022-08-03T22:01:18;27.00;99.90
28532;DHT22;15738;44.860;10.066;2022-08-03T22:04:05;26.90;99.90
28532;DHT22;15738;44.860;10.066;2022-08-03T22:09:39;27.00;99.90
28532;DHT22;15738;44.860;10.066;2022-08-03T22:12:36;27.00;99.90
28532;DHT22;15738;44.860;10.066;2022-08-03T22:15:22;26.30;99.90
28532;DHT22;15738;44.860;10.066;2022-08-03T22:18:08;26.90;99.90
28532;DHT22;15738;44.860;10.066;2022-08-03T22:20:54;26.70;99.90
28532;DHT22;15738;44.860;10.066;2022-08-03T22:23:46;26.50;99.90
28532;DHT22;15738;44.860;10.066;2022-08-03T22:26:33;27.10;99.90
28532;DHT22;15738;44.860;10.066;2022-08-03T22:29:20;26.70;99.90
28532;DHT22;15738;44.860;10.066;2022-08-03T22:32:06;26.90;99.90
28532;DHT22;15738;44.860;10.066;2022-08-03T22:34:52;26.80;99.90
28532;DHT22;15738;44.860;10.066;2022-08-03T22:37:39;27.30;99.90
28532;DHT22;15738;44.860;10.066;2022-08-03T22:40:26;26.10;99.90
28532;DHT22;15738;44.860;10.066;2022-08-03T22:43:12;26.40;99.90
28532;DHT22;15738;44.860;10.066;2022-08-03T22:45:57;26.80;99.90
28532;DHT22;15738;44.860;10.066;2022-08-03T22:48:58;25.60;99.90
28532;DHT22;15738;44.860;10.066;2022-08-03T22:51:45;26.60;99.90
28532;DHT22;15738;44.860;10.066;2022-08-03T22:54:32;27.00;99.90
28532;DHT22;15738;44.860;10.066;2022-08-03T22:57:19;26.80;99.90
28532;DHT22;15738;44.860;10.066;2022-08-03T23:00:11;27.10;99.90
28532;DHT22;15738;44.860;10.066;2022-08-03T23:02:59;26.80;99.90
28532;DHT22;15738;44.860;10.066;2022-08-03T23:05:49;26.50;99.90
28532;DHT22;15738;44.860;10.066;2022-08-03T23:08:48;26.40;99.90
28532;DHT22;15738;44.860;10.066;2022-08-03T23:11:36;26.50;99.90
28532;DHT22;15738;44.860;10.066;2022-08-03T23:14:33;26.40;99.90
28532;DHT22;15738;44.860;10.066;2022-08-03T23:17:22;26.40;99.90
28532;DHT22;15738;44.860;10.066;2022-08-03T23:20:09;26.30;99.90
28532;DHT22;15738;44.860;10.066;2022-08-03T23:22:55;26.40;99.90
28532;DHT22;15738;44.860;10.066;2022-08-03T23:25:45;26.00;99.90
28532;DHT22;15738;44.860;10.066;2022-08-03T23:28:31;26.10;99.90
28532;DHT22;15738;44.860;10.066;2022-08-03T23:31:17;26.10;99.90